Time;durP1;ratioP1;P1;durP2;ratioP2;P2;SDS_P1;SDS_P2;PMS_P1;PMS_P2;Temp;Humidity;BMP_temperature;BMP_pressure;BME280_temperature;BME280_humidity;BME280_pressure;Samples;Min_cycle;Max_cycle;Signal;HPM_P1;HPM_P2
2024/03/18 00:00:40;;;;;;;5.00;2.67;;;3.70;99.90;;;;;;6131341;23;20399;-59
2024/03/18 00:03:09;;;;;;;6.67;3.70;;;3.60;99.90;;;;;;6130761;23;20462;-54
2024/03/18 00:05:36;;;;;;;3.90;2.50;;;3.50;99.90;;;;;;6133097;23;20410;-53
2024/03/18 00:08:02;;;;;;;5.83;3.83;;;3.60;99.90;;;;;;6134309;23;20439;-55
2024/03/18 00:10:29;;;;;;;9.63;3.77;;;3.50;99.90;;;;;;6134173;23;20443;-54
2024/03/18 00:12:57;;;;;;;4.93;2.63;;;3.60;99.90;;;;;;6133779;23;20439;-59
2024/03/18 00:15:24;;;;;;;5.13;3.00;;;3.50;99.90;;;;;;6135830;23;20407;-56
2024/03/18 00:17:51;;;;;;;7.33;2.90;;;3.60;99.90;;;;;;6134897;23;20411;-55
2024/03/18 00:20:19;;;;;;;5.60;3.77;;;3.50;99.90;;;;;;6134079;23;20430;-55
2024/03/18 00:22:46;;;;;;;5.07;2.80;;;3.50;99.90;;;;;;6133414;23;20450;-53
2024/03/18 00:25:13;;;;;;;7.73;3.00;;;3.50;99.90;;;;;;6133090;23;20407;-56
2024/03/18 00:27:40;;;;;;;7.17;2.90;;;3.40;99.90;;;;;;6133132;23;20418;-56
2024/03/18 00:30:11;;;;;;;6.27;2.80;;;3.40;99.90;;;;;;6134433;23;20479;-55
2024/03/18 00:32:39;;;;;;;8.70;4.40;;;3.30;99.90;;;;;;6132968;23;20427;-56
2024/03/18 00:35:09;;;;;;;7.40;3.70;;;3.30;99.90;;;;;;6132283;23;20407;-55
2024/03/18 00:37:38;;;;;;;16.87;3.70;;;3.30;99.90;;;;;;6132371;23;20413;-58
2024/03/18 00:40:06;;;;;;;6.77;3.20;;;3.30;99.90;;;;;;6132565;23;20407;-53
2024/03/18 00:42:32;;;;;;;7.63;3.17;;;3.30;99.90;;;;;;6131511;23;20482;-55
2024/03/18 00:45:00;;;;;;;9.00;4.13;;;3.30;99.90;;;;;;6129190;23;20898;-56
2024/03/18 00:47:27;;;;;;;6.37;3.60;;;3.20;99.90;;;;;;6130010;23;20486;-55
2024/03/18 00:49:54;;;;;;;8.63;3.40;;;3.20;99.90;;;;;;6129662;23;20418;-57
2024/03/18 00:52:21;;;;;;;6.93;3.23;;;3.20;99.90;;;;;;6128768;23;20992;-58
2024/03/18 00:54:49;;;;;;;4.10;2.60;;;3.20;99.90;;;;;;6129476;23;20914;-61
2024/03/18 00:57:16;;;;;;;6.40;3.57;;;3.20;99.90;;;;;;6129601;23;20894;-57
2024/03/18 00:59:42;;;;;;;6.80;3.80;;;3.10;99.90;;;;;;6131891;23;20407;-59
2024/03/18 01:02:09;;;;;;;10.33;3.80;;;3.10;99.90;;;;;;6129687;23;20459;-53
2024/03/18 01:04:36;;;;;;;5.13;3.33;;;3.00;99.90;;;;;;6131263;23;20407;-55
2024/03/18 01:07:03;;;;;;;6.13;3.30;;;3.00;99.90;;;;;;6130918;23;20466;-54
2024/03/18 01:09:30;;;;;;;10.03;2.90;;;3.00;99.90;;;;;;6130628;23;21005;-57
2024/03/18 01:11:58;;;;;;;5.93;3.20;;;3.00;99.90;;;;;;6141057;23;20447;-57
2024/03/18 01:14:26;;;;;;;6.50;3.47;;;3.00;99.90;;;;;;6137416;23;20418;-55
2024/03/18 01:16:53;;;;;;;11.07;3.83;;;3.00;99.90;;;;;;6132813;23;20407;-56
2024/03/18 01:19:20;;;;;;;6.70;3.20;;;3.00;99.90;;;;;;6134573;23;20469;-58
2024/03/18 01:21:46;;;;;;;4.60;2.97;;;3.00;99.90;;;;;;6135162;23;20427;-53
2024/03/18 01:24:13;;;;;;;9.00;4.10;;;3.00;99.90;;;;;;6133187;23;20487;-57
2024/03/18 01:26:40;;;;;;;5.13;2.30;;;2.90;99.90;;;;;;6131944;23;20544;-56
2024/03/18 01:29:09;;;;;;;6.40;2.93;;;2.90;99.90;;;;;;6133429;23;20427;-56
2024/03/18 01:31:36;;;;;;;5.53;2.60;;;2.90;99.90;;;;;;6132591;23;20521;-56
2024/03/18 01:34:04;;;;;;;5.97;2.87;;;2.90;99.90;;;;;;6133163;23;20403;-59
2024/03/18 01:36:32;;;;;;;5.03;2.80;;;2.90;99.90;;;;;;6132661;23;20407;-57
2024/03/18 01:38:59;;;;;;;6.13;2.83;;;2.90;99.90;;;;;;6132838;23;20411;-59
2024/03/18 01:41:26;;;;;;;6.87;2.17;;;2.90;99.90;;;;;;6132254;23;20503;-57
2024/03/18 01:43:52;;;;;;;7.73;3.40;;;2.90;99.90;;;;;;6132094;23;20406;-58
2024/03/18 01:46:21;;;;;;;6.90;2.20;;;2.90;99.90;;;;;;6131424;23;20407;-60
2024/03/18 01:48:48;;;;;;;5.30;2.90;;;2.90;99.90;;;;;;6130852;23;20445;-57
2024/03/18 01:51:15;;;;;;;4.07;2.27;;;2.90;99.90;;;;;;6130939;23;20522;-59
2024/03/18 01:53:43;;;;;;;5.00;2.97;;;2.90;99.90;;;;;;6131459;23;20462;-58
2024/03/18 01:56:13;;;;;;;7.27;2.73;;;2.90;99.90;;;;;;6132044;23;20723;-59
2024/03/18 01:58:43;;;;;;;4.67;2.43;;;2.90;99.90;;;;;;6131816;23;20402;-59
2024/03/18 02:01:10;;;;;;;4.47;2.53;;;2.90;99.90;;;;;;6131957;23;20417;-58
2024/03/18 02:03:39;;;;;;;6.07;3.00;;;2.90;99.90;;;;;;6131718;23;20491;-58
2024/03/18 02:06:07;;;;;;;4.97;2.63;;;2.80;99.90;;;;;;6132264;23;20410;-59
2024/03/18 02:08:37;;;;;;;6.57;2.90;;;2.80;99.90;;;;;;6132222;23;20409;-58
2024/03/18 02:11:05;;;;;;;5.20;2.77;;;2.90;99.90;;;;;;6132699;23;20451;-60
2024/03/18 02:13:32;;;;;;;3.20;2.10;;;2.90;99.90;;;;;;6134130;23;20497;-56
2024/03/18 02:16:00;;;;;;;3.73;2.63;;;2.90;99.90;;;;;;6134056;23;20410;-59
2024/03/18 02:18:32;;;;;;;2.83;2.10;;;2.80;99.90;;;;;;6134251;23;20419;-58
2024/03/18 02:21:06;;;;;;;4.00;2.63;;;2.80;99.90;;;;;;6134707;23;20390;-59
2024/03/18 02:23:34;;;;;;;6.40;2.40;;;2.80;99.90;;;;;;6133742;23;20430;-58
2024/03/18 02:26:01;;;;;;;3.57;2.60;;;2.80;99.90;;;;;;6133356;23;20781;-59
2024/03/18 02:28:28;;;;;;;6.03;2.23;;;2.70;99.90;;;;;;6132988;23;20412;-58
2024/03/18 02:30:55;;;;;;;6.90;2.93;;;2.70;99.90;;;;;;6132117;23;20466;-58
2024/03/18 02:33:22;;;;;;;4.80;1.90;;;2.60;99.90;;;;;;6132642;23;20431;-59
2024/03/18 02:35:49;;;;;;;3.80;2.13;;;2.60;99.90;;;;;;6134722;23;20928;-58
2024/03/18 02:38:16;;;;;;;3.40;2.40;;;2.60;99.90;;;;;;6135573;23;20493;-59
2024/03/18 02:40:44;;;;;;;4.43;2.33;;;3.00;99.90;;;;;;6136177;23;20405;-59
2024/03/18 02:43:11;;;;;;;4.40;2.80;;;2.60;99.90;;;;;;6135592;23;20430;-59
2024/03/18 02:45:37;;;;;;;5.70;2.03;;;2.50;99.90;;;;;;6134127;23;20442;-59
2024/03/18 02:48:05;;;;;;;4.53;1.97;;;2.50;99.90;;;;;;6131261;23;20407;-58
2024/03/18 02:50:33;;;;;;;4.40;2.03;;;2.50;99.90;;;;;;6130802;23;20431;-57
2024/03/18 02:52:59;;;;;;;7.43;2.70;;;2.40;99.90;;;;;;6130945;23;20462;-54
2024/03/18 02:55:26;;;;;;;4.17;2.10;;;2.50;99.90;;;;;;6131418;23;20430;-56
2024/03/18 02:57:55;;;;;;;3.10;1.70;;;2.50;99.90;;;;;;6132394;23;20399;-57
2024/03/18 03:00:22;;;;;;;2.90;2.33;;;2.40;99.90;;;;;;6131964;23;20404;-60
2024/03/18 03:02:51;;;;;;;5.60;2.70;;;2.40;99.90;;;;;;6131375;23;20430;-57
2024/03/18 03:05:18;;;;;;;4.03;1.67;;;2.40;99.90;;;;;;6131762;23;20406;-60
2024/03/18 03:07:45;;;;;;;2.30;1.67;;;2.40;99.90;;;;;;6130693;23;20740;-58
2024/03/18 03:10:12;;;;;;;7.13;3.10;;;2.40;99.90;;;;;;6131864;23;20454;-59
2024/03/18 03:12:42;;;;;;;3.17;2.40;;;2.40;99.90;;;;;;6131412;23;20525;-58
2024/03/18 03:15:14;;;;;;;3.17;2.20;;;2.30;99.90;;;;;;6133697;23;20403;-60
2024/03/18 03:17:40;;;;;;;7.80;2.93;;;2.30;99.90;;;;;;6131277;23;20407;-58
2024/03/18 03:20:08;;;;;;;3.13;2.30;;;2.30;99.90;;;;;;6132431;23;20648;-60
2024/03/18 03:22:35;;;;;;;4.03;2.53;;;2.30;99.90;;;;;;6132463;23;20451;-61
2024/03/18 03:25:03;;;;;;;5.80;2.80;;;2.30;99.90;;;;;;6134292;23;20449;-58
2024/03/18 03:27:32;;;;;;;7.07;2.10;;;2.40;99.90;;;;;;6132755;23;20407;-60
2024/03/18 03:29:59;;;;;;;2.47;1.93;;;2.20;99.90;;;;;;6131939;23;20415;-60
2024/03/18 03:32:27;;;;;;;2.83;2.40;;;2.10;99.90;;;;;;6131259;23;20453;-60
2024/03/18 03:34:54;;;;;;;2.33;1.83;;;2.20;99.90;;;;;;6130797;23;20449;-60
2024/03/18 03:37:21;;;;;;;5.57;2.60;;;2.20;99.90;;;;;;6128915;23;20418;-59
2024/03/18 03:39:48;;;;;;;5.00;2.37;;;2.10;99.90;;;;;;6131238;23;20450;-59
2024/03/18 03:42:17;;;;;;;8.47;3.53;;;2.20;99.90;;;;;;6129311;23;20430;-60
2024/03/18 03:44:44;;;;;;;2.77;2.00;;;2.10;99.90;;;;;;6129072;23;20482;-56
2024/03/18 03:47:11;;;;;;;7.37;2.80;;;2.10;99.90;;;;;;6130154;23;20406;-58
2024/03/18 03:49:41;;;;;;;4.93;2.73;;;2.10;99.90;;;;;;6130125;23;20417;-59
2024/03/18 03:52:08;;;;;;;5.53;2.10;;;2.10;99.90;;;;;;6129678;23;20475;-59
2024/03/18 03:54:35;;;;;;;3.43;2.07;;;2.10;99.90;;;;;;6130904;23;20400;-58
2024/03/18 03:57:02;;;;;;;2.47;1.80;;;2.10;99.90;;;;;;6129556;23;20437;-58
2024/03/18 03:59:29;;;;;;;3.10;1.83;;;2.00;99.90;;;;;;6128596;23;20898;-59
2024/03/18 04:01:56;;;;;;;3.40;2.20;;;2.00;99.90;;;;;;6128418;23;20980;-54
2024/03/18 04:04:23;;;;;;;2.90;1.90;;;2.00;99.90;;;;;;6129985;23;20407;-57
2024/03/18 04:06:52;;;;;;;5.30;3.77;;;2.00;99.90;;;;;;6129574;23;20417;-54
2024/03/18 04:09:19;;;;;;;4.00;2.23;;;1.90;99.90;;;;;;6129449;23;20733;-56
2024/03/18 04:11:46;;;;;;;9.40;4.10;;;2.00;99.90;;;;;;6129118;23;20471;-58
2024/03/18 04:14:13;;;;;;;4.80;1.83;;;1.90;99.90;;;;;;6128899;23;20430;-59
2024/03/18 04:16:38;;;;;;;3.43;1.93;;;2.00;99.90;;;;;;6135208;23;20439;-58
2024/03/18 04:19:05;;;;;;;3.50;2.90;;;1.90;99.90;;;;;;6137554;23;20426;-58
2024/03/18 04:21:32;;;;;;;6.30;2.50;;;2.10;99.90;;;;;;6133223;23;20403;-59
2024/03/18 04:24:02;;;;;;;5.70;3.13;;;1.80;99.90;;;;;;6132005;23;20438;-58
2024/03/18 04:26:30;;;;;;;5.50;2.30;;;1.80;99.90;;;;;;6132448;23;20450;-58
2024/03/18 04:28:57;;;;;;;2.50;1.93;;;1.80;99.90;;;;;;6132058;23;20787;-61
2024/03/18 04:31:24;;;;;;;4.03;2.53;;;1.70;99.90;;;;;;6131702;23;20462;-61
2024/03/18 04:33:51;;;;;;;6.27;2.47;;;1.70;99.90;;;;;;6131640;23;20410;-59
2024/03/18 04:36:20;;;;;;;2.27;2.00;;;2.10;99.90;;;;;;6132038;23;20782;-57
2024/03/18 04:38:47;;;;;;;4.00;2.23;;;1.70;99.90;;;;;;6130717;23;20704;-57
2024/03/18 04:41:15;;;;;;;17.00;3.17;;;1.70;99.90;;;;;;6130519;23;20949;-56
2024/03/18 04:43:42;;;;;;;3.90;2.50;;;1.70;99.90;;;;;;6130632;23;20816;-55
2024/03/18 04:46:09;;;;;;;3.77;3.30;;;1.60;99.90;;;;;;6130487;23;20410;-59
2024/03/18 04:48:36;;;;;;;4.53;2.33;;;1.60;99.90;;;;;;6129870;23;20410;-59
2024/03/18 04:51:03;;;;;;;4.17;1.53;;;1.60;99.90;;;;;;6129981;23;20478;-59
2024/03/18 04:53:31;;;;;;;3.00;1.97;;;1.50;99.90;;;;;;6129392;23;20455;-58
2024/03/18 04:55:58;;;;;;;8.50;2.40;;;1.50;99.90;;;;;;6130945;23;20789;-61
2024/03/18 04:58:26;;;;;;;5.00;2.13;;;1.50;99.90;;;;;;6132651;23;20431;-61
2024/03/18 05:00:53;;;;;;;3.27;2.00;;;1.50;99.90;;;;;;6132466;23;20495;-58
2024/03/18 05:03:21;;;;;;;2.90;1.80;;;1.60;99.90;;;;;;6130771;23;20469;-56
2024/03/18 05:05:48;;;;;;;3.50;2.40;;;1.50;99.90;;;;;;6131810;23;20815;-58
2024/03/18 05:08:14;;;;;;;5.23;1.60;;;1.60;99.90;;;;;;6130248;23;20891;-58
2024/03/18 05:10:41;;;;;;;4.70;2.63;;;1.60;99.90;;;;;;6130453;23;20438;-57
2024/03/18 05:13:10;;;;;;;3.57;2.17;;;1.60;99.90;;;;;;6129534;23;20450;-57
2024/03/18 05:15:38;;;;;;;3.77;2.30;;;1.60;99.90;;;;;;6131085;23;20407;-56
2024/03/18 05:18:05;;;;;;;9.23;2.40;;;1.60;99.90;;;;;;6130475;23;20411;-57
2024/03/18 05:20:32;;;;;;;4.30;1.60;;;1.60;99.90;;;;;;6131658;23;20413;-58
2024/03/18 05:23:01;;;;;;;3.50;1.87;;;1.60;99.90;;;;;;6133941;23;20427;-58
2024/03/18 05:25:28;;;;;;;3.87;2.10;;;1.70;99.90;;;;;;6132893;23;20413;-58
2024/03/18 05:28:01;;;;;;;2.23;1.30;;;1.80;99.90;;;;;;6134097;23;20410;-56
2024/03/18 05:30:31;;;;;;;1.70;1.60;;;1.80;99.90;;;;;;6132060;23;20407;-57
2024/03/18 05:32:59;;;;;;;5.37;1.87;;;1.80;99.90;;;;;;6135080;23;20474;-57
2024/03/18 05:35:26;;;;;;;3.30;2.07;;;1.80;99.90;;;;;;6135372;23;20407;-54
2024/03/18 05:37:53;;;;;;;2.07;1.40;;;1.80;99.90;;;;;;6135623;23;20437;-55
2024/03/18 05:40:20;;;;;;;3.50;1.97;;;1.90;99.90;;;;;;6135241;23;20452;-52
2024/03/18 05:42:47;;;;;;;3.73;2.13;;;1.90;99.90;;;;;;6132600;23;20423;-54
2024/03/18 05:45:14;;;;;;;1.83;1.47;;;1.90;99.90;;;;;;6131311;23;20412;-50
2024/03/18 05:47:41;;;;;;;2.80;1.37;;;1.90;99.90;;;;;;6132426;23;20477;-54
2024/03/18 05:50:10;;;;;;;2.70;1.50;;;1.90;99.90;;;;;;6135440;23;20432;-52
2024/03/18 05:52:37;;;;;;;3.40;1.50;;;2.00;99.90;;;;;;6136556;23;20535;-52
2024/03/18 05:55:05;;;;;;;3.63;2.20;;;1.90;99.90;;;;;;6132235;23;20407;-49
2024/03/18 05:57:32;;;;;;;4.63;2.20;;;1.90;99.90;;;;;;6131823;23;20444;-51
2024/03/18 05:59:59;;;;;;;2.63;1.77;;;1.80;99.90;;;;;;6134491;23;20414;-56
2024/03/18 06:02:26;;;;;;;3.80;2.20;;;1.90;99.90;;;;;;6137270;23;20431;-57
2024/03/18 06:04:53;;;;;;;7.30;2.17;;;1.90;99.90;;;;;;6136773;23;20431;-54
2024/03/18 06:07:23;;;;;;;3.67;2.27;;;1.90;99.90;;;;;;6136094;23;20418;-55
2024/03/18 06:09:50;;;;;;;3.30;1.90;;;1.90;99.90;;;;;;6138057;23;20466;-56
2024/03/18 06:12:16;;;;;;;2.90;1.60;;;1.90;99.90;;;;;;6136614;23;20993;-58
2024/03/18 06:14:43;;;;;;;8.00;2.43;;;1.90;99.90;;;;;;6137046;23;20782;-54
2024/03/18 06:17:10;;;;;;;5.97;3.00;;;1.90;99.90;;;;;;6138367;23;20414;-53
2024/03/18 06:19:37;;;;;;;1.50;1.40;;;2.00;99.90;;;;;;6134646;23;20765;-59
2024/03/18 06:22:09;;;;;;;3.10;2.47;;;1.90;99.90;;;;;;6136430;23;20457;-60
2024/03/18 06:27:18;;;;;;;8.57;3.10;;;2.00;99.90;;;;;;6131130;23;20473;-58
2024/03/18 06:29:45;;;;;;;5.10;2.07;;;2.00;99.90;;;;;;6132055;23;20901;-60
2024/03/18 06:32:12;;;;;;;1.87;1.40;;;2.00;99.90;;;;;;6131639;23;20461;-60
2024/03/18 06:34:39;;;;;;;3.80;2.00;;;2.10;99.90;;;;;;6131454;23;20446;-58
2024/03/18 06:37:06;;;;;;;4.77;2.67;;;2.20;99.90;;;;;;6132291;23;20413;-59
2024/03/18 06:39:33;;;;;;;5.97;2.23;;;2.30;99.90;;;;;;6132441;23;20464;-59
2024/03/18 06:42:01;;;;;;;5.33;2.07;;;2.30;99.90;;;;;;6130894;23;20419;-61
2024/03/18 06:44:30;;;;;;;4.80;2.37;;;2.30;99.90;;;;;;6130910;23;20462;-59
2024/03/18 06:46:57;;;;;;;6.40;1.50;;;2.30;99.90;;;;;;6131170;23;20742;-59
2024/03/18 06:49:24;;;;;;;4.80;2.43;;;2.40;99.90;;;;;;6131883;23;20411;-57
2024/03/18 06:51:51;;;;;;;2.23;1.60;;;2.40;99.90;;;;;;6132532;23;20443;-59
2024/03/18 06:54:22;;;;;;;2.60;1.77;;;2.50;99.90;;;;;;6132580;23;20413;-62
2024/03/18 06:56:49;;;;;;;2.00;1.73;;;2.50;99.90;;;;;;6132800;23;20387;-60
2024/03/18 06:59:17;;;;;;;4.90;2.40;;;2.60;99.90;;;;;;6129554;23;20442;-61
2024/03/18 07:01:44;;;;;;;2.83;2.50;;;2.50;99.90;;;;;;6129335;23;20799;-58
2024/03/18 07:04:11;;;;;;;3.00;1.80;;;2.60;99.90;;;;;;6130720;23;20828;-58
2024/03/18 07:06:39;;;;;;;1.80;1.60;;;2.70;99.90;;;;;;6130400;23;20427;-59
2024/03/18 07:09:07;;;;;;;2.90;1.83;;;2.80;99.90;;;;;;6131242;23;20740;-61
2024/03/18 07:11:34;;;;;;;2.60;1.90;;;2.80;99.90;;;;;;6131294;23;20445;-57
2024/03/18 07:14:00;;;;;;;4.37;2.00;;;2.90;99.90;;;;;;6132368;23;20979;-59
2024/03/18 07:16:29;;;;;;;2.77;1.57;;;3.00;99.90;;;;;;6132792;23;20406;-60
2024/03/18 07:18:56;;;;;;;3.07;2.00;;;3.00;99.90;;;;;;6133128;23;20407;-58
2024/03/18 07:21:23;;;;;;;8.33;2.10;;;3.20;99.90;;;;;;6132229;23;20486;-57
2024/03/18 07:23:50;;;;;;;4.70;2.50;;;3.20;99.90;;;;;;6132657;23;20490;-58
2024/03/18 07:26:17;;;;;;;2.10;1.40;;;3.20;99.90;;;;;;6132353;23;20422;-54
2024/03/18 07:28:44;;;;;;;8.20;2.40;;;3.30;99.90;;;;;;6132020;23;20413;-55
2024/03/18 07:31:13;;;;;;;2.23;1.73;;;3.40;99.90;;;;;;6131574;23;20407;-58
2024/03/18 07:33:42;;;;;;;1.87;1.20;;;3.40;99.90;;;;;;6131667;23;20453;-60
2024/03/18 07:36:09;;;;;;;14.33;1.60;;;3.50;99.90;;;;;;6131850;23;20411;-59
2024/03/18 07:38:39;;;;;;;2.10;1.57;;;3.60;99.90;;;;;;6131683;23;20407;-57
2024/03/18 07:41:06;;;;;;;1.10;1.00;;;3.60;99.90;;;;;;6131142;23;20395;-60
2024/03/18 07:43:33;;;;;;;1.73;1.40;;;3.70;99.90;;;;;;6131914;23;20434;-59
2024/03/18 07:46:00;;;;;;;1.63;1.47;;;3.80;99.90;;;;;;6132141;23;20411;-57
2024/03/18 07:48:27;;;;;;;2.60;1.60;;;3.80;99.90;;;;;;6133583;23;20411;-59
2024/03/18 07:50:58;;;;;;;3.33;1.77;;;3.90;99.90;;;;;;6133812;23;20462;-59
2024/03/18 07:53:27;;;;;;;3.33;1.67;;;4.00;99.90;;;;;;6133781;23;20473;-58
2024/03/18 07:56:05;;;;;;;2.90;1.70;;;4.10;99.90;;;;;;6133107;23;20781;-59
2024/03/18 07:58:32;;;;;;;1.60;1.00;;;4.20;99.90;;;;;;6131283;23;20407;-60
2024/03/18 08:00:59;;;;;;;2.63;1.30;;;4.30;99.90;;;;;;6131072;23;20471;-61
2024/03/18 08:03:26;;;;;;;1.40;0.87;;;4.40;99.90;;;;;;6130768;23;20782;-59
2024/03/18 08:05:53;;;;;;;3.67;2.60;;;4.50;99.90;;;;;;6131986;23;20414;-60
2024/03/18 08:08:21;;;;;;;1.60;1.03;;;4.50;99.90;;;;;;6131991;23;20445;-60
2024/03/18 08:10:51;;;;;;;1.70;1.10;;;4.60;99.90;;;;;;6132438;23;20434;-60
2024/03/18 08:13:18;;;;;;;2.03;1.10;;;4.70;99.90;;;;;;6132429;23;20953;-59
2024/03/18 08:15:47;;;;;;;2.30;0.80;;;4.80;99.90;;;;;;6131787;23;20407;-57
2024/03/18 08:18:13;;;;;;;2.80;1.00;;;4.90;99.90;;;;;;6131033;23;20419;-57
2024/03/18 08:20:41;;;;;;;1.70;1.07;;;5.00;99.90;;;;;;6130644;23;20788;-59
2024/03/18 08:23:08;;;;;;;3.57;1.23;;;5.10;99.90;;;;;;6130020;23;20510;-60
2024/03/18 08:25:36;;;;;;;1.83;0.93;;;5.10;99.90;;;;;;6130084;23;20615;-61
2024/03/18 08:28:04;;;;;;;0.90;0.77;;;5.20;99.90;;;;;;6128407;23;20780;-61
2024/03/18 08:30:33;;;;;;;1.10;0.80;;;5.30;99.90;;;;;;6127822;23;20470;-59
2024/03/18 08:33:00;;;;;;;1.77;0.80;;;5.30;99.90;;;;;;6129330;23;20443;-55
2024/03/18 08:35:27;;;;;;;2.40;1.20;;;5.50;99.90;;;;;;6129206;23;20414;-60
2024/03/18 08:37:54;;;;;;;1.57;0.90;;;6.10;99.90;;;;;;6129017;23;20395;-59
2024/03/18 08:40:21;;;;;;;2.63;2.20;;;7.30;99.90;;;;;;6128630;23;20403;-58
2024/03/18 08:42:49;;;;;;;1.60;1.50;;;8.90;99.90;;;;;;6129691;23;20431;-60
2024/03/18 08:45:17;;;;;;;2.40;1.10;;;10.70;93.10;;;;;;6130923;23;20407;-61
2024/03/18 08:47:44;;;;;;;3.30;1.23;;;12.40;86.20;;;;;;6131933;23;20415;-61
2024/03/18 08:50:14;;;;;;;1.50;1.17;;;13.90;72.30;;;;;;6132242;23;20933;-62
2024/03/18 08:52:41;;;;;;;1.63;1.10;;;15.40;63.70;;;;;;6132196;23;20680;-57
2024/03/18 08:55:09;;;;;;;1.57;0.90;;;16.30;56.20;;;;;;6132138;23;20441;-58
2024/03/18 08:57:36;;;;;;;1.60;1.17;;;16.90;52.40;;;;;;6132734;23;20403;-60
2024/03/18 09:00:10;;;;;;;1.70;1.30;;;17.30;50.60;;;;;;6132027;23;20461;-58
2024/03/18 09:02:38;;;;;;;2.30;0.80;;;17.50;48.50;;;;;;6131756;23;20422;-61
2024/03/18 09:05:07;;;;;;;1.57;1.00;;;17.60;47.20;;;;;;6132703;23;20410;-60
2024/03/18 09:07:34;;;;;;;1.07;0.80;;;17.90;46.50;;;;;;6132647;23;20433;-60
2024/03/18 09:10:01;;;;;;;1.90;1.10;;;18.10;45.80;;;;;;6132087;23;20485;-62
2024/03/18 09:12:37;;;;;;;2.00;1.10;;;18.40;44.60;;;;;;6157925;23;20545;-63
2024/03/18 09:15:07;;;;;;;5.90;1.30;;;18.20;44.20;;;;;;6155139;23;20413;-63
2024/03/18 09:17:33;;;;;;;1.70;1.07;;;18.30;44.00;;;;;;6156147;23;20398;-64
2024/03/18 09:20:00;;;;;;;2.67;1.00;;;18.00;43.80;;;;;;6155764;23;20434;-63
2024/03/18 09:22:27;;;;;;;5.47;1.40;;;17.90;43.90;;;;;;6156533;23;20450;-62
2024/03/18 09:24:54;;;;;;;1.20;1.00;;;17.80;43.60;;;;;;6156757;23;20398;-62
2024/03/18 09:27:21;;;;;;;2.60;1.00;;;17.60;44.30;;;;;;6155958;23;20441;-64
2024/03/18 09:29:49;;;;;;;1.93;1.00;;;17.50;43.70;;;;;;6155477;23;20481;-64
2024/03/18 09:32:17;;;;;;;1.10;0.90;;;17.20;44.60;;;;;;6153660;23;20430;-63
2024/03/18 09:34:44;;;;;;;1.20;1.00;;;17.00;43.70;;;;;;6154187;23;20402;-62
2024/03/18 09:37:11;;;;;;;3.00;1.30;;;16.00;44.30;;;;;;6155730;23;20437;-63
2024/03/18 09:39:38;;;;;;;6.50;1.00;;;14.80;45.20;;;;;;6156036;23;20476;-64
2024/03/18 09:42:06;;;;;;;1.73;1.03;;;13.70;47.00;;;;;;6155718;23;20422;-62
2024/03/18 09:44:35;;;;;;;3.00;1.50;;;13.00;48.50;;;;;;6156195;23;20425;-62
2024/03/18 09:47:02;;;;;;;1.77;1.57;;;12.30;49.60;;;;;;6156298;23;20493;-62
2024/03/18 09:49:32;;;;;;;2.40;1.07;;;11.90;50.60;;;;;;6156005;23;20402;-63
2024/03/18 09:51:59;;;;;;;1.10;1.00;;;12.50;51.50;;;;;;6155319;23;20453;-64
2024/03/18 09:54:25;;;;;;;1.90;0.97;;;13.30;50.40;;;;;;6155540;23;20434;-62
2024/03/18 09:56:59;;;;;;;2.30;1.20;;;14.10;49.30;;;;;;6155584;23;20493;-64
2024/03/18 09:59:26;;;;;;;7.53;1.47;;;14.70;48.40;;;;;;6155530;23;20465;-64
2024/03/18 10:01:53;;;;;;;2.47;1.17;;;15.60;47.50;;;;;;6155663;23;20430;-62
2024/03/18 10:04:21;;;;;;;2.80;0.80;;;16.20;46.00;;;;;;6156314;23;20433;-63
2024/03/18 10:06:53;;;;;;;2.10;1.60;;;16.70;45.00;;;;;;6155913;23;20498;-63
2024/03/18 10:09:22;;;;;;;2.90;1.80;;;16.90;44.50;;;;;;6155880;23;20490;-65
2024/03/18 10:11:50;;;;;;;3.17;1.47;;;17.10;44.50;;;;;;6155300;23;20434;-64
2024/03/18 10:14:17;;;;;;;2.47;1.30;;;17.20;44.50;;;;;;6155576;23;20442;-64
2024/03/18 10:16:44;;;;;;;1.33;0.90;;;17.30;44.30;;;;;;6155350;23;20456;-64
2024/03/18 10:19:16;;;;;;;1.50;0.90;;;17.20;43.90;;;;;;6155206;23;20406;-63
2024/03/18 10:21:43;;;;;;;1.63;1.00;;;17.20;44.80;;;;;;6155460;23;20984;-63
2024/03/18 10:24:14;;;;;;;1.80;1.00;;;17.70;43.70;;;;;;6155093;23;20395;-64
2024/03/18 10:26:41;;;;;;;2.70;1.10;;;17.60;43.00;;;;;;6155330;23;20448;-61
2024/03/18 10:29:09;;;;;;;1.50;1.20;;;17.20;43.90;;;;;;6155747;23;20967;-63
2024/03/18 10:31:38;;;;;;;1.20;0.93;;;17.20;43.40;;;;;;6155184;23;20413;-63
2024/03/18 10:34:06;;;;;;;3.07;1.47;;;17.10;44.30;;;;;;6154988;23;20445;-63
2024/03/18 10:36:36;;;;;;;2.90;1.30;;;17.10;43.70;;;;;;6155459;23;20413;-63
2024/03/18 10:39:07;;;;;;;3.33;1.70;;;17.30;43.70;;;;;;6155934;23;20406;-66
2024/03/18 10:41:39;;;;;;;1.73;1.10;;;17.20;44.00;;;;;;6156200;23;20387;-64
2024/03/18 10:44:18;;;;;;;2.50;1.40;;;17.00;44.00;;;;;;6154886;23;20382;-65
2024/03/18 10:46:45;;;;;;;1.60;1.00;;;17.10;44.60;;;;;;6155008;23;20418;-62
2024/03/18 10:49:17;;;;;;;1.20;0.90;;;16.90;43.70;;;;;;6155369;23;20481;-64
2024/03/18 10:51:46;;;;;;;1.50;1.10;;;17.00;44.50;;;;;;6154988;23;20445;-64
2024/03/18 10:54:16;;;;;;;1.87;1.00;;;16.80;44.60;;;;;;6154778;23;20449;-64
2024/03/18 10:56:45;;;;;;;1.73;1.10;;;16.40;44.70;;;;;;6154957;23;20402;-63
2024/03/18 10:59:14;;;;;;;1.20;0.80;;;16.20;45.60;;;;;;6155661;23;20713;-65
2024/03/18 11:01:41;;;;;;;1.60;1.17;;;16.10;45.00;;;;;;6154936;23;20430;-64
2024/03/18 11:04:18;;;;;;;2.40;1.40;;;15.80;46.10;;;;;;6154960;23;20437;-64
2024/03/18 11:06:48;;;;;;;1.90;1.40;;;15.60;46.10;;;;;;6155045;23;20386;-65
2024/03/18 11:09:18;;;;;;;1.30;1.10;;;15.40;46.10;;;;;;6155238;23;20403;-64
2024/03/18 11:11:46;;;;;;;2.03;1.00;;;15.20;46.50;;;;;;6154337;23;20441;-65
2024/03/18 11:14:24;;;;;;;2.53;1.40;;;14.90;46.90;;;;;;6154917;23;20509;-65
2024/03/18 11:16:52;;;;;;;1.53;1.13;;;14.60;47.40;;;;;;6155201;23;20882;-64
2024/03/18 11:19:18;;;;;;;4.50;1.97;;;14.40;47.70;;;;;;6154509;23;20402;-62
2024/03/18 11:21:45;;;;;;;2.30;0.90;;;14.10;47.90;;;;;;6154553;23;20422;-61
2024/03/18 11:24:23;;;;;;;3.90;1.73;;;14.00;48.30;;;;;;6155258;23;20402;-65
2024/03/18 11:26:57;;;;;;;5.07;1.00;;;13.70;49.10;;;;;;6155344;23;20425;-63
2024/03/18 11:29:31;;;;;;;2.13;1.40;;;13.30;48.60;;;;;;6154550;23;20441;-64
2024/03/18 11:32:00;;;;;;;4.10;1.67;;;12.90;49.10;;;;;;6154746;23;20513;-64
2024/03/18 11:34:26;;;;;;;1.50;1.10;;;12.70;49.60;;;;;;6154872;23;20537;-64
2024/03/18 11:36:55;;;;;;;1.83;1.17;;;12.60;50.20;;;;;;6154381;23;20944;-62
2024/03/18 11:39:22;;;;;;;1.00;0.90;;;12.40;51.40;;;;;;6155095;23;20779;-64
2024/03/18 11:41:59;;;;;;;1.63;0.90;;;12.30;50.60;;;;;;6154247;23;20773;-64
2024/03/18 11:44:26;;;;;;;1.30;0.90;;;12.10;50.50;;;;;;6155088;23;20382;-59
2024/03/18 11:47:02;;;;;;;2.40;1.10;;;12.00;51.10;;;;;;6154839;23;20411;-63
2024/03/18 11:49:29;;;;;;;2.50;1.03;;;11.80;51.30;;;;;;6154875;23;20846;-63
2024/03/18 11:51:56;;;;;;;4.90;1.83;;;11.60;51.50;;;;;;6155344;23;20436;-64
2024/03/18 11:54:23;;;;;;;2.67;1.40;;;11.60;51.80;;;;;;6156238;23;20465;-64
2024/03/18 11:56:50;;;;;;;2.90;1.30;;;11.50;52.40;;;;;;6156434;23;20403;-63
2024/03/18 11:59:18;;;;;;;2.03;0.90;;;11.50;51.90;;;;;;6156530;23;20460;-64
2024/03/18 12:01:47;;;;;;;3.90;1.57;;;11.40;51.80;;;;;;6157577;23;20422;-64
2024/03/18 12:04:18;;;;;;;4.33;1.00;;;11.30;52.00;;;;;;6156392;23;20449;-63
2024/03/18 12:06:46;;;;;;;2.20;1.03;;;11.20;51.90;;;;;;6156354;23;20876;-64
2024/03/18 12:09:14;;;;;;;6.93;1.57;;;11.20;52.10;;;;;;6155037;23;20413;-61
2024/03/18 12:11:41;;;;;;;2.10;0.93;;;11.20;52.40;;;;;;6154381;23;20438;-64
2024/03/18 12:14:09;;;;;;;3.60;1.60;;;11.30;52.10;;;;;;6154625;23;20497;-64
2024/03/18 12:16:40;;;;;;;1.67;1.03;;;11.30;52.00;;;;;;6154603;23;20485;-65
2024/03/18 12:19:07;;;;;;;1.53;0.80;;;11.40;53.20;;;;;;6155053;23;20719;-64
2024/03/18 12:21:38;;;;;;;2.40;1.10;;;11.30;52.20;;;;;;6154514;23;20437;-64
2024/03/18 12:29:36;;;;;;;1.60;1.20;;;11.10;52.50;;;;;;6154363;23;20820;-64
2024/03/18 12:32:04;;;;;;;1.97;1.17;;;11.00;52.20;;;;;;6154298;23;20489;-64
2024/03/18 12:34:32;;;;;;;1.87;1.43;;;11.00;53.10;;;;;;6153878;23;20952;-63
2024/03/18 12:37:00;;;;;;;1.43;1.13;;;10.90;53.00;;;;;;6154500;23;20697;-62
2024/03/18 12:39:28;;;;;;;4.30;1.73;;;10.80;53.00;;;;;;6154498;23;20489;-63
2024/03/18 12:41:59;;;;;;;2.47;1.23;;;10.80;52.40;;;;;;6153493;23;20422;-62
2024/03/18 12:44:27;;;;;;;3.20;1.20;;;10.70;52.10;;;;;;6154534;23;20390;-62
2024/03/18 12:46:54;;;;;;;1.57;0.97;;;10.70;52.50;;;;;;6154405;23;20770;-64
2024/03/18 12:49:23;;;;;;;2.53;1.17;;;10.70;52.40;;;;;;6154475;23;20897;-62
2024/03/18 12:51:50;;;;;;;2.90;1.50;;;10.70;52.80;;;;;;6153952;23;20426;-64
2024/03/18 12:54:17;;;;;;;1.23;0.80;;;10.60;52.20;;;;;;6153965;23;20470;-62
2024/03/18 12:56:44;;;;;;;1.93;1.30;;;10.50;52.20;;;;;;6153969;23;20481;-64
2024/03/18 12:59:11;;;;;;;1.97;0.80;;;10.40;53.00;;;;;;6154275;23;20402;-63
2024/03/18 13:01:38;;;;;;;1.67;1.27;;;10.40;53.10;;;;;;6154203;23;20410;-63
2024/03/18 13:04:06;;;;;;;1.40;0.90;;;10.50;53.60;;;;;;6153868;23;21013;-63